Time;durP1;ratioP1;P1;durP2;ratioP2;P2;SDS_P1;SDS_P2;PMS_P1;PMS_P2;Temp;Humidity;BMP_temperature;BMP_pressure;BME280_temperature;BME280_humidity;BME280_pressure;Samples;Min_cycle;Max_cycle;Signal;HPM_P1;HPM_P2
2022/01/13 00:00:44;;;;;;;33.93;13.63;;;1.60;99.90;;;;;;4170350;28;20452;-82
2022/01/13 00:02:46;;;;;;;31.77;14.40;;;1.50;99.90;;;;;;4169207;28;20481;-81
2022/01/13 00:04:48;;;;;;;32.57;14.03;;;1.50;99.90;;;;;;4180663;28;20511;-82
2022/01/13 00:06:50;;;;;;;33.77;14.57;;;1.50;99.90;;;;;;4168329;28;20867;-82
2022/01/13 00:08:58;;;;;;;34.40;14.17;;;1.60;99.90;;;;;;4169056;28;20464;-82
2022/01/13 00:10:59;;;;;;;32.20;14.37;;;1.50;99.90;;;;;;4159947;28;20900;-81
2022/01/13 00:13:06;;;;;;;33.90;14.57;;;1.40;99.90;;;;;;4166588;28;21019;-82
2022/01/13 00:15:21;;;;;;;31.70;13.50;;;1.40;99.90;;;;;;4168289;28;20458;-81
2022/01/13 00:17:33;;;;;;;33.93;14.30;;;1.40;99.90;;;;;;4166621;28;20454;-81
2022/01/13 00:19:47;;;;;;;32.17;13.67;;;1.40;99.90;;;;;;4171701;28;20472;-81
2022/01/13 00:21:56;;;;;;;32.53;14.00;;;1.30;99.90;;;;;;4151398;28;20522;-81
2022/01/13 00:24:00;;;;;;;38.90;15.73;;;1.30;99.90;;;;;;4167831;28;20486;-81
2022/01/13 00:26:07;;;;;;;29.77;13.07;;;1.30;99.90;;;;;;4161403;28;20956;-81
2022/01/13 00:28:16;;;;;;;33.33;13.33;;;1.30;99.90;;;;;;4165912;28;20518;-81
2022/01/13 00:30:20;;;;;;;32.53;13.77;;;1.20;99.90;;;;;;4167639;28;20545;-82
2022/01/13 00:32:24;;;;;;;31.87;13.43;;;1.30;99.90;;;;;;4156291;28;20475;-81
2022/01/13 00:34:26;;;;;;;29.23;12.97;;;1.30;99.90;;;;;;4170029;28;20483;-81
2022/01/13 00:36:30;;;;;;;32.87;13.07;;;1.20;99.90;;;;;;4167084;28;20465;-81
2022/01/13 00:38:31;;;;;;;29.90;13.23;;;1.30;99.90;;;;;;4167802;28;20984;-81
2022/01/13 00:40:33;;;;;;;32.13;13.47;;;1.40;99.90;;;;;;4167594;28;20459;-81
2022/01/13 00:42:35;;;;;;;29.13;12.50;;;1.20;99.90;;;;;;4166868;28;21044;-81
2022/01/13 00:44:38;;;;;;;27.53;13.00;;;1.20;99.90;;;;;;4168135;28;20940;-81
2022/01/13 00:46:43;;;;;;;33.43;13.53;;;1.10;99.90;;;;;;4167858;28;20452;-82
2022/01/13 00:48:45;;;;;;;32.97;14.63;;;1.20;99.90;;;;;;4166927;28;20475;-82
2022/01/13 00:50:47;;;;;;;31.63;12.67;;;1.10;99.90;;;;;;4171911;28;20468;-81
2022/01/13 00:52:48;;;;;;;31.73;13.37;;;1.20;99.90;;;;;;4164112;28;20491;-82
2022/01/13 00:54:50;;;;;;;36.23;14.07;;;1.10;99.90;;;;;;4156787;28;20475;-81
2022/01/13 00:56:52;;;;;;;30.73;12.30;;;1.10;99.90;;;;;;4154151;28;20462;-81
2022/01/13 00:58:54;;;;;;;30.43;12.73;;;1.10;99.90;;;;;;4151561;28;20489;-81
2022/01/13 01:00:59;;;;;;;28.97;12.70;;;1.10;99.90;;;;;;4151751;28;20707;-81
2022/01/13 01:03:00;;;;;;;27.93;12.63;;;1.10;99.90;;;;;;4149093;28;20551;-81
2022/01/13 01:05:02;;;;;;;30.43;12.70;;;1.10;99.90;;;;;;4145451;28;20464;-81
2022/01/13 01:07:04;;;;;;;29.03;11.73;;;1.10;99.90;;;;;;4151728;28;20492;-81
2022/01/13 01:09:13;;;;;;;26.90;12.13;;;1.10;99.90;;;;;;4151704;28;20498;-82
2022/01/13 01:11:14;;;;;;;25.90;12.37;;;1.00;99.90;;;;;;4145337;28;20465;-81
2022/01/13 01:13:20;;;;;;;26.93;12.03;;;1.10;99.90;;;;;;4150519;28;20484;-82
2022/01/13 01:15:23;;;;;;;25.90;12.13;;;1.10;99.90;;;;;;4151454;28;20528;-81
2022/01/13 01:17:26;;;;;;;28.60;12.20;;;1.10;99.90;;;;;;4151480;28;21159;-81
2022/01/13 01:19:29;;;;;;;30.33;12.23;;;1.10;99.90;;;;;;4150088;28;20500;-81
2022/01/13 01:24:11;;;;;;;26.03;12.23;;;1.00;99.90;;;;;;4154902;28;20534;-82
2022/01/13 01:26:24;;;;;;;29.27;11.83;;;1.00;99.90;;;;;;4153397;28;20484;-82
2022/01/13 01:28:36;;;;;;;29.17;12.53;;;1.00;99.90;;;;;;4157925;28;20991;-82
2022/01/13 01:30:41;;;;;;;27.67;12.07;;;1.00;99.90;;;;;;4159607;28;20460;-83
2022/01/13 01:32:45;;;;;;;29.40;12.87;;;1.00;99.90;;;;;;4160694;28;20487;-82
2022/01/13 01:34:55;;;;;;;28.57;12.10;;;1.00;99.90;;;;;;4149122;28;20893;-82
2022/01/13 01:36:57;;;;;;;25.97;11.50;;;1.00;99.90;;;;;;4157341;28;20451;-82
2022/01/13 01:38:59;;;;;;;31.63;11.80;;;1.00;99.90;;;;;;4161948;28;20460;-82
2022/01/13 01:41:01;;;;;;;32.20;12.23;;;1.00;99.90;;;;;;4159635;28;20464;-82
2022/01/13 01:43:03;;;;;;;26.97;12.30;;;1.00;99.90;;;;;;4154250;28;20910;-82
2022/01/13 01:45:07;;;;;;;31.20;12.63;;;1.00;99.90;;;;;;4158892;28;20455;-82
2022/01/13 01:47:11;;;;;;;24.23;11.93;;;1.00;99.90;;;;;;4152008;28;20852;-83
2022/01/13 01:49:17;;;;;;;30.77;12.50;;;1.00;99.90;;;;;;4155700;28;20473;-82
2022/01/13 01:51:19;;;;;;;25.77;12.53;;;1.00;99.90;;;;;;4159274;28;20466;-82
2022/01/13 01:53:21;;;;;;;32.70;13.37;;;1.00;99.90;;;;;;4168684;28;20999;-83
2022/01/13 01:55:23;;;;;;;29.90;13.17;;;1.00;99.90;;;;;;4173295;28;20455;-82
2022/01/13 01:57:25;;;;;;;26.70;12.10;;;1.00;99.90;;;;;;4184892;28;20462;-83
2022/01/13 01:59:30;;;;;;;32.27;13.83;;;1.00;99.90;;;;;;4172678;28;20478;-83
2022/01/13 02:01:31;;;;;;;30.53;12.73;;;1.10;99.90;;;;;;4171037;28;20463;-82
2022/01/13 02:03:33;;;;;;;30.33;12.90;;;1.10;99.90;;;;;;4173139;28;20490;-84
2022/01/13 02:05:36;;;;;;;33.80;13.63;;;1.10;99.90;;;;;;4171017;28;20486;-82
2022/01/13 02:07:38;;;;;;;29.80;12.63;;;1.10;99.90;;;;;;4167857;28;20486;-82
2022/01/13 02:09:43;;;;;;;30.63;12.63;;;1.00;99.90;;;;;;4176319;28;20999;-82
2022/01/13 02:11:48;;;;;;;30.53;12.80;;;1.10;99.90;;;;;;4176931;28;20456;-83
2022/01/13 02:13:53;;;;;;;31.77;13.07;;;1.10;99.90;;;;;;4173090;28;20488;-82
2022/01/13 02:16:02;;;;;;;27.40;12.10;;;1.10;99.90;;;;;;4177209;28;20494;-83
2022/01/13 02:18:07;;;;;;;32.83;13.30;;;1.10;99.90;;;;;;4174299;28;20468;-82
2022/01/13 02:20:12;;;;;;;29.47;12.73;;;1.00;99.90;;;;;;4178325;28;20463;-83
2022/01/13 02:22:15;;;;;;;26.97;12.10;;;1.10;99.90;;;;;;4181903;28;20463;-83
2022/01/13 02:24:17;;;;;;;32.40;13.23;;;1.00;99.90;;;;;;4179938;28;20455;-84
2022/01/13 02:26:19;;;;;;;30.93;13.40;;;1.00;99.90;;;;;;4175404;28;20723;-83
2022/01/13 02:28:21;;;;;;;33.87;12.53;;;1.00;99.90;;;;;;4174175;28;20501;-82
2022/01/13 02:30:23;;;;;;;29.23;12.83;;;1.00;99.90;;;;;;4164663;28;20529;-82
2022/01/13 02:32:25;;;;;;;32.40;13.87;;;1.00;99.90;;;;;;4170670;28;20466;-82
2022/01/13 02:34:27;;;;;;;30.40;12.97;;;1.00;99.90;;;;;;4170545;28;20501;-82
2022/01/13 02:36:30;;;;;;;28.87;12.93;;;1.00;99.90;;;;;;4165048;28;20491;-82
2022/01/13 02:38:33;;;;;;;33.40;12.77;;;1.00;99.90;;;;;;4171301;28;20490;-82
2022/01/13 02:40:35;;;;;;;28.57;13.00;;;1.00;99.90;;;;;;4172444;28;20444;-83
2022/01/13 02:42:37;;;;;;;30.43;12.50;;;1.00;99.90;;;;;;4172024;28;20481;-82
2022/01/13 02:44:48;;;;;;;32.40;12.90;;;1.00;99.90;;;;;;4173265;28;20467;-82
2022/01/13 02:47:09;;;;;;;31.13;12.90;;;1.00;99.90;;;;;;4163068;28;20525;-83
2022/01/13 02:49:12;;;;;;;28.40;12.53;;;1.00;99.90;;;;;;4172411;28;20485;-82
2022/01/13 02:51:14;;;;;;;29.93;13.30;;;1.10;99.90;;;;;;4169806;28;20454;-83
2022/01/13 02:53:16;;;;;;;32.53;13.27;;;1.00;99.90;;;;;;4184361;22;20524;-80
2022/01/13 02:55:19;;;;;;;29.87;12.10;;;1.10;99.90;;;;;;4179099;28;20877;-80
2022/01/13 02:57:21;;;;;;;29.83;12.13;;;0.70;99.90;;;;;;4183018;28;20818;-81
2022/01/13 02:59:22;;;;;;;32.20;12.93;;;1.10;99.90;;;;;;4175616;28;20463;-80
2022/01/13 03:01:25;;;;;;;34.10;13.40;;;1.20;99.90;;;;;;4181735;28;20466;-80
2022/01/13 03:03:27;;;;;;;26.17;12.17;;;1.10;99.90;;;;;;4178835;28;20578;-79
2022/01/13 03:05:31;;;;;;;29.77;13.33;;;1.20;99.90;;;;;;4184294;28;20459;-80
2022/01/13 03:07:34;;;;;;;32.80;14.83;;;1.10;99.90;;;;;;4180680;28;20456;-79
2022/01/13 03:09:36;;;;;;;31.17;13.33;;;1.10;99.90;;;;;;4178440;28;20990;-80
2022/01/13 03:11:39;;;;;;;29.40;12.73;;;1.10;99.90;;;;;;4182297;28;20485;-79
2022/01/13 03:13:41;;;;;;;32.30;13.43;;;1.00;99.90;;;;;;4188703;28;20486;-79
2022/01/13 03:15:43;;;;;;;28.87;13.37;;;1.10;99.90;;;;;;4190178;28;20463;-80
2022/01/13 03:17:44;;;;;;;33.23;13.83;;;1.10;99.90;;;;;;4185776;28;20508;-78
2022/01/13 03:19:46;;;;;;;26.93;12.40;;;1.00;99.90;;;;;;4176118;28;20869;-78
2022/01/13 03:21:48;;;;;;;28.47;12.07;;;1.00;99.90;;;;;;4182878;28;20483;-77
2022/01/13 03:23:50;;;;;;;31.67;13.23;;;1.00;99.90;;;;;;4179189;28;20531;-76
2022/01/13 03:25:53;;;;;;;34.10;13.60;;;1.00;99.90;;;;;;4182582;28;20884;-77
2022/01/13 03:28:03;;;;;;;27.10;12.73;;;1.00;99.90;;;;;;4179573;28;21005;-77
2022/01/13 03:30:08;;;;;;;29.90;12.07;;;1.00;99.90;;;;;;4176926;28;20497;-77
2022/01/13 03:32:09;;;;;;;32.83;13.73;;;1.00;99.90;;;;;;4189204;28;20961;-78
2022/01/13 03:34:13;;;;;;;34.37;13.80;;;1.00;99.90;;;;;;4180793;28;20485;-79
2022/01/13 03:36:15;;;;;;;31.97;13.30;;;1.00;99.90;;;;;;4169509;28;20549;-77
2022/01/13 03:38:16;;;;;;;28.80;13.27;;;0.90;99.90;;;;;;4180473;28;20516;-78
2022/01/13 03:40:18;;;;;;;31.97;13.37;;;0.90;99.90;;;;;;4182386;28;20540;-77
2022/01/13 03:42:20;;;;;;;36.67;13.57;;;1.00;99.90;;;;;;4176426;28;20528;-77
2022/01/13 03:44:28;;;;;;;35.00;13.53;;;0.90;99.90;;;;;;4170880;28;20527;-78
2022/01/13 03:46:29;;;;;;;31.07;13.60;;;0.90;99.90;;;;;;4169948;28;20742;-79
2022/01/13 03:48:31;;;;;;;30.50;12.27;;;0.90;99.90;;;;;;4181639;28;20524;-77
2022/01/13 03:50:33;;;;;;;34.73;13.83;;;1.00;99.90;;;;;;4182635;28;20455;-77
2022/01/13 03:53:26;;;;;;;32.30;13.87;;;0.90;99.90;;;;;;4166470;28;21015;-77
2022/01/13 03:56:06;;;;;;;30.27;13.03;;;0.90;99.90;;;;;;4114757;28;20529;-77
2022/01/13 03:58:56;;;;;;;30.87;13.23;;;0.90;99.90;;;;;;4112850;28;20875;-77
2022/01/13 04:03:26;;;;;;;33.57;13.37;;;0.90;99.90;;;;;;4236801;27;20601;-76
2022/01/13 04:05:28;;;;;;;35.37;13.60;;;0.90;99.90;;;;;;4227371;28;20497;-77
2022/01/13 04:07:30;;;;;;;29.60;12.47;;;0.90;99.90;;;;;;4239961;27;20449;-76
2022/01/13 04:10:07;;;;;;;28.80;12.73;;;0.90;99.90;;;;;;4231913;28;20527;-76
2022/01/13 04:12:12;;;;;;;32.87;12.27;;;0.90;99.90;;;;;;4206293;28;20464;-76
2022/01/13 04:14:14;;;;;;;32.43;12.57;;;0.90;99.90;;;;;;4236870;27;20501;-76
2022/01/13 04:16:18;;;;;;;30.93;12.63;;;0.90;99.90;;;;;;4243101;28;20482;-76
2022/01/13 04:18:19;;;;;;;27.77;12.47;;;0.90;99.90;;;;;;4231582;28;20485;-76
2022/01/13 04:20:22;;;;;;;28.10;11.93;;;0.90;99.90;;;;;;4226307;28;20490;-77
2022/01/13 04:22:25;;;;;;;30.97;11.57;;;0.90;99.90;;;;;;4227716;28;20574;-76
2022/01/13 04:24:27;;;;;;;32.30;12.80;;;0.90;99.90;;;;;;4239062;28;20529;-77
2022/01/13 04:26:30;;;;;;;32.60;12.83;;;0.90;99.90;;;;;;4228976;28;20538;-76
2022/01/13 04:28:32;;;;;;;29.83;12.47;;;0.90;99.90;;;;;;4225347;28;20497;-77
2022/01/13 04:30:48;;;;;;;23.80;11.00;;;1.00;99.90;;;;;;4226523;28;20468;-76
2022/01/13 04:32:51;;;;;;;30.50;12.27;;;1.00;99.90;;;;;;4227792;28;20500;-76
2022/01/13 04:34:53;;;;;;;31.37;12.67;;;1.00;99.90;;;;;;4219532;28;20470;-76
2022/01/13 04:36:56;;;;;;;28.70;11.60;;;1.10;99.90;;;;;;4218760;28;20472;-76
2022/01/13 04:38:58;;;;;;;29.83;12.83;;;1.10;99.90;;;;;;4233054;27;20550;-76
2022/01/13 04:41:01;;;;;;;30.93;12.73;;;1.10;99.90;;;;;;4232915;27;20450;-80
2022/01/13 04:43:03;;;;;;;26.57;11.57;;;1.10;99.90;;;;;;4228567;28;20483;-77
2022/01/13 04:45:06;;;;;;;30.70;12.70;;;1.10;99.90;;;;;;4221199;28;20486;-76
2022/01/13 04:47:08;;;;;;;30.53;12.27;;;1.20;99.90;;;;;;4227026;28;20456;-77
2022/01/13 04:49:12;;;;;;;25.63;11.00;;;1.20;99.90;;;;;;4239069;28;20452;-76
2022/01/13 04:51:14;;;;;;;27.67;11.90;;;1.20;99.90;;;;;;4239281;28;20462;-76
2022/01/13 04:53:17;;;;;;;24.83;10.93;;;1.20;99.90;;;;;;4228890;28;20541;-77
2022/01/13 04:55:24;;;;;;;26.03;10.67;;;1.20;99.90;;;;;;4226558;28;20449;-76
2022/01/13 04:57:26;;;;;;;26.13;11.17;;;1.30;99.90;;;;;;4227426;28;20547;-77
2022/01/13 04:59:28;;;;;;;24.07;11.27;;;1.30;99.90;;;;;;4226591;28;20457;-76
2022/01/13 05:01:29;;;;;;;24.73;11.30;;;1.30;99.90;;;;;;4231519;28;20834;-76
2022/01/13 05:03:31;;;;;;;25.63;10.70;;;1.30;99.90;;;;;;4231801;28;20502;-76
2022/01/13 05:05:33;;;;;;;25.10;11.43;;;1.30;99.90;;;;;;4226202;28;20457;-76
2022/01/13 05:07:35;;;;;;;23.10;10.77;;;1.40;99.90;;;;;;4225882;28;20855;-77
2022/01/13 05:09:38;;;;;;;27.93;12.03;;;1.40;99.90;;;;;;4232467;28;20503;-78
2022/01/13 05:11:39;;;;;;;23.63;10.17;;;1.40;99.90;;;;;;4225338;28;20561;-76
2022/01/13 05:13:41;;;;;;;24.03;9.77;;;1.40;99.90;;;;;;4225785;28;20477;-77
2022/01/13 05:15:44;;;;;;;23.50;10.63;;;1.40;99.90;;;;;;4216412;28;20465;-79
2022/01/13 05:18:07;;;;;;;22.90;10.53;;;1.40;99.90;;;;;;4215828;28;20504;-79
2022/01/13 05:20:14;;;;;;;26.23;10.47;;;1.50;99.90;;;;;;4213207;28;20466;-77
2022/01/13 05:22:16;;;;;;;23.83;10.57;;;1.50;99.90;;;;;;4198885;28;20503;-77
2022/01/13 05:24:17;;;;;;;32.87;11.43;;;1.50;99.90;;;;;;4210545;28;20535;-76
2022/01/13 05:26:22;;;;;;;24.70;10.60;;;1.50;99.90;;;;;;4215328;28;20537;-77
2022/01/13 05:28:24;;;;;;;22.90;10.33;;;1.50;99.90;;;;;;4217543;28;20464;-77
2022/01/13 05:30:25;;;;;;;24.57;10.53;;;1.60;99.90;;;;;;4202100;28;20461;-76
2022/01/13 05:32:27;;;;;;;23.20;10.10;;;1.60;99.90;;;;;;4211687;28;20461;-76
2022/01/13 05:34:29;;;;;;;25.17;10.30;;;1.60;99.90;;;;;;4222572;28;20270;-77
2022/01/13 05:36:30;;;;;;;22.23;10.47;;;1.60;99.90;;;;;;4213994;28;20907;-77
2022/01/13 05:38:32;;;;;;;21.30;10.00;;;1.60;99.90;;;;;;4214693;28;21080;-76
2022/01/13 05:40:35;;;;;;;23.47;9.83;;;1.60;99.90;;;;;;4215618;28;20458;-76
2022/01/13 05:42:38;;;;;;;22.10;10.00;;;1.60;99.90;;;;;;4217941;28;20481;-76
2022/01/13 05:44:39;;;;;;;20.40;9.37;;;1.70;99.90;;;;;;4214136;28;20513;-76
2022/01/13 05:46:41;;;;;;;23.40;9.40;;;1.60;99.90;;;;;;4215408;28;20471;-76
2022/01/13 05:48:43;;;;;;;23.67;10.07;;;1.60;99.90;;;;;;4214606;28;20461;-76
2022/01/13 05:50:45;;;;;;;22.57;10.03;;;1.60;99.90;;;;;;4214850;28;20458;-76
2022/01/13 05:52:47;;;;;;;26.87;10.37;;;1.60;99.90;;;;;;4214847;28;20458;-77
2022/01/13 05:54:49;;;;;;;23.47;10.13;;;1.60;99.90;;;;;;4215428;28;20477;-76
2022/01/13 05:56:50;;;;;;;23.00;9.10;;;1.60;99.90;;;;;;4214477;28;20881;-77
2022/01/13 05:58:53;;;;;;;22.27;9.47;;;1.60;99.90;;;;;;4213539;28;20454;-76
2022/01/13 06:00:58;;;;;;;19.07;9.20;;;1.50;99.90;;;;;;4215403;28;20511;-77
2022/01/13 06:02:59;;;;;;;21.47;9.20;;;1.50;99.90;;;;;;4218530;28;20497;-80
2022/01/13 06:05:01;;;;;;;25.63;9.80;;;1.50;99.90;;;;;;4210355;28;20511;-81
2022/01/13 06:07:03;;;;;;;21.97;9.63;;;1.50;99.90;;;;;;4221563;28;20605;-79
2022/01/13 06:09:05;;;;;;;21.07;9.53;;;1.50;99.90;;;;;;4212894;28;20474;-81
2022/01/13 06:11:07;;;;;;;25.07;9.87;;;1.50;99.90;;;;;;4213468;28;20459;-78
2022/01/13 06:13:08;;;;;;;24.47;10.57;;;1.50;99.90;;;;;;4212344;28;20542;-77
2022/01/13 06:15:14;;;;;;;26.70;10.07;;;1.40;99.90;;;;;;4215887;28;20524;-80
2022/01/13 06:17:16;;;;;;;23.07;9.73;;;1.40;99.90;;;;;;4217529;28;20848;-79
2022/01/13 06:19:17;;;;;;;25.30;10.80;;;1.40;99.90;;;;;;4218481;28;20970;-78
2022/01/13 06:21:22;;;;;;;21.50;9.07;;;1.40;99.90;;;;;;4217189;28;20523;-79
2022/01/13 06:23:24;;;;;;;22.77;10.13;;;1.40;99.90;;;;;;4218908;28;20497;-79
2022/01/13 06:25:26;;;;;;;27.03;10.27;;;1.40;99.90;;;;;;4213446;28;20943;-79
2022/01/13 06:27:27;;;;;;;24.17;9.63;;;1.40;99.90;;;;;;4213735;28;20463;-79
2022/01/13 06:29:29;;;;;;;23.33;10.87;;;1.40;99.90;;;;;;4212744;28;20463;-78
2022/01/13 06:31:32;;;;;;;28.17;9.87;;;1.40;99.90;;;;;;4211339;28;20455;-77
2022/01/13 06:33:34;;;;;;;44.77;9.93;;;1.40;99.90;;;;;;4209799;28;20493;-80
2022/01/13 06:35:37;;;;;;;21.33;9.57;;;1.40;99.90;;;;;;4200868;28;20508;-78
2022/01/13 06:37:40;;;;;;;22.97;9.53;;;1.40;99.90;;;;;;4206902;28;20441;-79
2022/01/13 06:39:42;;;;;;;28.37;10.57;;;1.40;99.90;;;;;;4215183;28;20496;-82
2022/01/13 06:41:47;;;;;;;27.57;10.10;;;1.40;99.90;;;;;;4215349;28;20465;-82
2022/01/13 06:43:48;;;;;;;25.03;10.13;;;1.40;99.90;;;;;;4203777;28;20496;-82
2022/01/13 06:45:50;;;;;;;25.30;10.23;;;1.40;99.90;;;;;;4216687;28;20492;-79
2022/01/13 06:47:53;;;;;;;24.10;10.33;;;1.40;99.90;;;;;;4217547;28;20474;-80
2022/01/13 06:49:55;;;;;;;21.13;9.43;;;1.40;99.90;;;;;;4220860;28;20460;-80
2022/01/13 06:51:57;;;;;;;23.80;9.60;;;1.50;99.90;;;;;;4217559;28;21138;-79
2022/01/13 06:53:58;;;;;;;23.37;10.07;;;1.30;99.90;;;;;;4205158;28;20472;-80
2022/01/13 06:56:00;;;;;;;24.60;9.77;;;1.30;99.90;;;;;;4216276;28;20503;-80
2022/01/13 06:58:02;;;;;;;20.43;9.43;;;1.30;99.90;;;;;;4205754;28;20522;-80
2022/01/13 07:00:05;;;;;;;22.17;9.83;;;1.30;99.90;;;;;;4210243;28;20446;-80
2022/01/13 07:02:07;;;;;;;20.83;8.70;;;1.30;99.90;;;;;;4208516;28;20472;-80
2022/01/13 07:04:12;;;;;;;20.77;9.13;;;1.30;99.90;;;;;;4209818;28;20503;-79
2022/01/13 07:06:14;;;;;;;19.33;8.93;;;1.30;99.90;;;;;;4211239;28;20463;-79
2022/01/13 07:08:16;;;;;;;22.83;9.43;;;1.30;99.90;;;;;;4211221;28;20466;-80
2022/01/13 07:10:17;;;;;;;22.93;8.80;;;1.30;99.90;;;;;;4211541;28;20488;-79
2022/01/13 07:12:19;;;;;;;24.03;8.93;;;1.30;99.90;;;;;;4210572;28;21135;-80
2022/01/13 07:14:20;;;;;;;25.07;10.40;;;1.30;99.90;;;;;;4209315;28;20519;-79
2022/01/13 07:16:22;;;;;;;22.67;9.60;;;1.20;99.90;;;;;;4211744;28;20983;-79
2022/01/13 07:18:24;;;;;;;18.27;8.63;;;1.20;99.90;;;;;;4211681;28;20968;-79
2022/01/13 07:20:28;;;;;;;20.27;9.30;;;1.20;99.90;;;;;;4213434;28;20469;-79
2022/01/13 07:22:30;;;;;;;22.67;10.73;;;1.20;99.90;;;;;;4207562;28;20494;-80
2022/01/13 07:24:31;;;;;;;24.67;10.10;;;1.20;99.90;;;;;;4206384;28;20932;-80
2022/01/13 07:26:33;;;;;;;22.27;9.67;;;1.20;99.90;;;;;;4208772;28;20514;-80
2022/01/13 07:28:35;;;;;;;20.07;8.53;;;1.30;99.90;;;;;;4208548;28;20515;-82
2022/01/13 07:30:36;;;;;;;23.97;10.10;;;1.20;99.90;;;;;;4208824;28;20786;-77
2022/01/13 07:32:38;;;;;;;22.50;9.47;;;1.20;99.90;;;;;;4207335;28;20952;-78
2022/01/13 07:34:41;;;;;;;26.20;10.20;;;1.20;99.90;;;;;;4206361;28;21002;-78
2022/01/13 07:36:44;;;;;;;22.03;9.33;;;1.20;99.90;;;;;;4208157;28;20518;-79
2022/01/13 07:38:46;;;;;;;27.13;10.07;;;1.20;99.90;;;;;;4207684;28;20491;-79
2022/01/13 07:40:48;;;;;;;21.30;9.37;;;1.20;99.90;;;;;;4207456;28;20458;-80
2022/01/13 07:42:50;;;;;;;22.27;9.53;;;1.20;99.90;;;;;;4199823;28;20497;-79
2022/01/13 07:44:52;;;;;;;21.53;9.67;;;1.20;99.90;;;;;;4207677;28;20492;-80
2022/01/13 07:46:56;;;;;;;22.17;9.40;;;1.30;99.90;;;;;;4209825;28;21016;-78
2022/01/13 07:48:57;;;;;;;24.50;9.63;;;1.20;99.90;;;;;;4208441;28;20479;-78
2022/01/13 07:50:59;;;;;;;19.73;8.60;;;1.30;99.90;;;;;;4211140;28;20553;-79
2022/01/13 07:53:02;;;;;;;25.17;10.47;;;1.20;99.90;;;;;;4212206;28;20553;-79
2022/01/13 07:55:05;;;;;;;20.00;9.20;;;1.20;99.90;;;;;;4207899;28;20471;-80
2022/01/13 07:57:07;;;;;;;21.80;9.40;;;1.30;99.90;;;;;;4212818;28;20460;-80
2022/01/13 07:59:08;;;;;;;23.33;9.50;;;1.30;99.90;;;;;;4211718;28;20879;-78
2022/01/13 08:01:10;;;;;;;26.77;9.67;;;1.30;99.90;;;;;;4210013;28;20460;-79
2022/01/13 08:03:12;;;;;;;21.77;9.43;;;1.30;99.90;;;;;;4210697;28;20874;-78
2022/01/13 08:05:14;;;;;;;19.40;9.60;;;1.30;99.90;;;;;;4207248;28;20516;-79
2022/01/13 08:07:15;;;;;;;21.73;9.53;;;1.30;99.90;;;;;;4207355;28;20728;-78
2022/01/13 08:09:18;;;;;;;19.43;9.10;;;1.30;99.90;;;;;;4207894;28;20476;-78
2022/01/13 08:11:23;;;;;;;22.87;10.03;;;1.30;99.90;;;;;;4208645;28;20453;-79
2022/01/13 08:13:24;;;;;;;23.30;9.00;;;1.30;99.90;;;;;;4206841;28;20579;-77
2022/01/13 08:15:27;;;;;;;23.20;9.97;;;1.30;99.90;;;;;;4209051;28;20509;-78
2022/01/13 08:19:48;;;;;;;24.60;10.03;;;1.40;99.90;;;;;;4208148;28;20444;-78
2022/01/13 08:21:50;;;;;;;20.43;8.93;;;1.40;99.90;;;;;;4207223;28;20913;-80
2022/01/13 08:23:52;;;;;;;24.20;9.63;;;1.40;99.90;;;;;;4205058;28;20858;-77
2022/01/13 08:25:55;;;;;;;20.30;9.37;;;1.40;99.90;;;;;;4206595;28;20483;-77
2022/01/13 08:27:57;;;;;;;22.60;9.60;;;1.50;99.90;;;;;;4205632;28;20818;-78
2022/01/13 08:29:59;;;;;;;22.27;9.47;;;1.50;99.90;;;;;;4207758;28;20850;-77
2022/01/13 08:32:01;;;;;;;24.40;9.70;;;1.60;99.90;;;;;;4209690;28;21099;-78
2022/01/13 08:34:03;;;;;;;21.47;9.17;;;1.60;99.90;;;;;;4210994;28;20477;-77
2022/01/13 08:36:06;;;;;;;19.43;8.63;;;1.60;99.90;;;;;;4210358;28;20476;-79
2022/01/13 08:38:15;;;;;;;23.53;9.87;;;1.70;99.90;;;;;;4211689;28;21005;-78
2022/01/13 08:40:17;;;;;;;20.60;9.27;;;3.00;99.90;;;;;;4212640;28;21046;-79
2022/01/13 08:42:22;;;;;;;15.00;8.57;;;1.80;99.90;;;;;;4213880;28;20474;-79
2022/01/13 08:44:23;;;;;;;18.30;9.27;;;1.90;99.90;;;;;;4209536;28;20489;-78
2022/01/13 08:46:27;;;;;;;24.10;9.63;;;1.90;99.90;;;;;;4206810;28;20492;-80
2022/01/13 08:48:29;;;;;;;19.73;8.17;;;1.90;99.90;;;;;;4206480;28;20531;-79
2022/01/13 08:50:30;;;;;;;19.17;9.37;;;2.00;99.90;;;;;;4211946;28;20530;-79
2022/01/13 08:52:33;;;;;;;21.13;8.60;;;2.00;99.90;;;;;;4209845;28;20473;-77
2022/01/13 08:54:35;;;;;;;23.87;8.87;;;2.00;99.90;;;;;;4210738;28;20474;-78
2022/01/13 08:56:37;;;;;;;19.10;8.53;;;2.10;99.90;;;;;;4209297;28;20822;-78
2022/01/13 08:58:41;;;;;;;20.20;8.77;;;2.10;99.90;;;;;;4209210;28;20514;-80
2022/01/13 09:00:43;;;;;;;16.47;8.43;;;2.10;99.90;;;;;;4208554;28;20473;-79
2022/01/13 09:02:45;;;;;;;16.77;8.50;;;2.20;99.90;;;;;;4208714;28;20505;-78
2022/01/13 09:04:47;;;;;;;19.40;8.27;;;2.20;99.90;;;;;;4208906;28;20489;-79
2022/01/13 09:06:48;;;;;;;19.27;8.27;;;2.20;99.90;;;;;;4209909;28;20554;-78
2022/01/13 09:08:50;;;;;;;17.87;8.47;;;2.30;99.90;;;;;;4211711;28;21073;-79
2022/01/13 09:10:52;;;;;;;16.43;7.97;;;2.30;99.90;;;;;;4208815;28;20830;-78
2022/01/13 09:12:53;;;;;;;19.87;7.80;;;2.30;99.90;;;;;;4209444;28;20490;-78
2022/01/13 09:15:02;;;;;;;16.53;8.07;;;2.40;99.90;;;;;;4210163;28;20451;-78
2022/01/13 09:17:09;;;;;;;16.33;7.90;;;2.40;99.90;;;;;;4209422;28;20905;-79
2022/01/13 09:19:12;;;;;;;18.03;7.80;;;2.50;99.90;;;;;;4207236;28;20478;-80
2022/01/13 09:21:14;;;;;;;15.60;8.40;;;2.50;99.90;;;;;;4210845;28;20465;-78
2022/01/13 09:23:17;;;;;;;18.03;7.67;;;2.60;99.90;;;;;;4208416;28;20901;-78
2022/01/13 09:25:19;;;;;;;18.07;7.67;;;2.60;99.90;;;;;;4206562;28;20498;-78
2022/01/13 09:27:20;;;;;;;16.57;7.83;;;2.70;99.90;;;;;;4207600;28;20474;-77
2022/01/13 09:29:22;;;;;;;17.67;7.10;;;2.70;99.90;;;;;;4209467;28;20503;-81
2022/01/13 09:31:26;;;;;;;15.03;7.07;;;2.80;99.90;;;;;;4209590;28;20465;-78
2022/01/13 09:33:28;;;;;;;16.83;8.10;;;2.90;99.90;;;;;;4210444;28;20487;-81
2022/01/13 09:35:30;;;;;;;16.57;8.30;;;2.90;99.90;;;;;;4209871;28;20463;-81
2022/01/13 09:37:32;;;;;;;15.67;7.07;;;2.90;99.90;;;;;;4211036;28;20838;-80
2022/01/13 09:39:33;;;;;;;16.93;7.73;;;3.00;99.90;;;;;;4209666;28;20944;-79
2022/01/13 09:41:35;;;;;;;18.27;7.60;;;3.00;99.90;;;;;;4210388;28;20475;-78
2022/01/13 09:43:37;;;;;;;15.17;7.27;;;3.10;99.90;;;;;;4210308;28;20508;-78
2022/01/13 09:45:40;;;;;;;13.80;6.43;;;3.10;99.90;;;;;;4211195;28;20510;-79
2022/01/13 09:47:43;;;;;;;14.13;6.90;;;3.20;99.90;;;;;;4211338;28;20462;-79
2022/01/13 09:49:45;;;;;;;17.30;7.30;;;3.20;99.90;;;;;;4209094;28;20540;-81
2022/01/13 09:51:47;;;;;;;18.00;7.93;;;3.30;99.90;;;;;;4209160;28;20474;-81
2022/01/13 09:53:48;;;;;;;16.00;7.27;;;3.30;99.90;;;;;;4212153;28;20508;-80
2022/01/13 09:55:51;;;;;;;15.40;7.60;;;3.40;99.90;;;;;;4210306;28;20463;-79
2022/01/13 09:57:56;;;;;;;16.03;6.97;;;3.40;99.90;;;;;;4212827;28;20495;-80
2022/01/13 09:59:58;;;;;;;14.73;7.13;;;3.40;99.90;;;;;;4209501;28;20463;-80
2022/01/13 10:01:59;;;;;;;14.70;7.60;;;3.50;99.90;;;;;;4210410;28;20463;-81
2022/01/13 10:04:02;;;;;;;14.73;7.47;;;3.50;99.90;;;;;;4210027;28;20491;-80
2022/01/13 10:06:10;;;;;;;17.23;7.80;;;3.50;99.90;;;;;;4211378;28;20465;-79
2022/01/13 10:08:12;;;;;;;17.87;7.83;;;3.60;99.90;;;;;;4209057;28;20544;-79
2022/01/13 10:10:17;;;;;;;17.80;8.10;;;3.60;99.90;;;;;;4208662;28;21181;-80
2022/01/13 10:12:24;;;;;;;19.97;7.83;;;3.70;99.90;;;;;;4209565;28;20459;-80
2022/01/13 10:16:50;;;;;;;21.37;8.80;;;3.70;99.90;;;;;;4208145;28;20505;-80
2022/01/13 10:18:52;;;;;;;17.30;8.10;;;3.80;99.90;;;;;;4208808;28;20459;-80
2022/01/13 10:21:07;;;;;;;19.23;9.30;;;3.80;99.90;;;;;;4208011;28;20461;-79
2022/01/13 10:23:09;;;;;;;17.37;8.83;;;3.90;99.90;;;;;;4209140;28;20478;-78
2022/01/13 10:25:29;;;;;;;18.93;9.17;;;3.90;99.90;;;;;;4205823;28;20523;-79
2022/01/13 10:27:33;;;;;;;19.63;9.30;;;3.90;99.90;;;;;;4207012;28;20473;-81
2022/01/13 10:29:44;;;;;;;21.33;9.63;;;4.00;99.90;;;;;;4208682;28;20462;-77
2022/01/13 10:31:50;;;;;;;22.00;9.07;;;4.00;99.90;;;;;;4208833;28;20450;-79
2022/01/13 10:33:51;;;;;;;17.20;9.17;;;4.10;99.90;;;;;;4207888;28;20509;-81
2022/01/13 10:35:56;;;;;;;19.77;9.93;;;4.10;99.90;;;;;;4208587;28;21048;-78
2022/01/13 10:38:02;;;;;;;19.73;9.50;;;4.20;99.90;;;;;;4209166;28;20974;-80
2022/01/13 10:40:07;;;;;;;19.50;9.07;;;4.20;99.90;;;;;;4208287;28;20467;-80
2022/01/13 10:42:20;;;;;;;21.53;9.07;;;4.30;99.90;;;;;;4207182;28;20467;-77
2022/01/13 10:44:22;;;;;;;19.90;9.30;;;4.30;99.90;;;;;;4208406;28;20501;-78
2022/01/13 10:46:24;;;;;;;18.10;8.70;;;4.50;99.90;;;;;;4207864;28;20463;-80
2022/01/13 10:48:31;;;;;;;19.47;9.23;;;4.40;99.90;;;;;;4208096;28;20831;-81